createdAt,value
2022-10-06T00:00:28.956Z,1008.78
2022-10-06T00:01:28.983Z,1008.78
2022-10-06T00:02:28.947Z,1008.83
2022-10-06T00:03:28.907Z,1008.82
2022-10-06T00:04:28.884Z,1008.79
2022-10-06T00:05:28.874Z,1008.87
2022-10-06T00:06:28.859Z,1008.86
2022-10-06T00:07:28.883Z,1008.95
2022-10-06T00:08:29.080Z,1008.91
2022-10-06T00:09:28.836Z,1008.91
2022-10-06T00:10:28.812Z,1008.91
2022-10-06T00:11:28.800Z,1008.92
2022-10-06T00:12:28.786Z,1008.96
2022-10-06T00:13:28.762Z,1008.99
2022-10-06T00:14:28.792Z,1009.02
2022-10-06T00:15:28.772Z,1009.01
2022-10-06T00:16:28.732Z,1009.03
2022-10-06T00:17:28.720Z,1009.06
2022-10-06T00:18:29.062Z,1009.08
2022-10-06T00:19:28.733Z,1009.09
2022-10-06T00:20:28.681Z,1009.11
2022-10-06T00:21:28.671Z,1009.13
2022-10-06T00:22:28.662Z,1009.26
2022-10-06T00:23:28.640Z,1009.17
2022-10-06T00:24:28.640Z,1009.20
2022-10-06T00:25:28.613Z,1009.26
2022-10-06T00:26:28.620Z,1009.28
2022-10-06T00:27:28.600Z,1009.23
2022-10-06T00:28:29.029Z,1009.23
2022-10-06T00:29:28.590Z,1009.22
2022-10-06T00:30:28.571Z,1009.29
2022-10-06T00:31:28.628Z,1009.33
2022-10-06T00:32:28.530Z,1009.33
2022-10-06T00:33:28.552Z,1009.34
2022-10-06T00:34:28.538Z,1009.40
2022-10-06T00:35:28.493Z,1009.33
2022-10-06T00:36:28.486Z,1009.39
2022-10-06T00:37:28.505Z,1009.42
2022-10-06T00:38:28.779Z,1009.38
2022-10-06T00:39:28.449Z,1009.33
2022-10-06T00:40:28.438Z,1009.38
2022-10-06T00:41:28.437Z,1009.37
2022-10-06T00:42:28.418Z,1009.37
2022-10-06T00:43:28.398Z,1009.39
2022-10-06T00:44:28.387Z,1009.37
2022-10-06T00:45:28.371Z,1009.35
2022-10-06T00:46:28.403Z,1009.45
2022-10-06T00:47:28.339Z,1009.45
2022-10-06T00:48:28.529Z,1009.54
2022-10-06T00:49:28.317Z,1009.53
2022-10-06T00:50:28.377Z,1009.56
2022-10-06T00:51:28.290Z,1009.63
2022-10-06T00:52:28.279Z,1009.61
2022-10-06T00:53:28.267Z,1009.71
2022-10-06T00:54:28.265Z,1009.70
2022-10-06T00:55:28.236Z,1009.77
2022-10-06T00:56:28.237Z,1009.76
2022-10-06T00:57:28.214Z,1009.75
2022-10-06T00:58:28.426Z,1009.74
2022-10-06T00:59:28.195Z,1009.80
2022-10-06T01:00:28.188Z,1009.72
2022-10-06T01:01:28.222Z,1009.74
2022-10-06T01:02:28.218Z,1009.78
2022-10-06T01:03:28.136Z,1009.79
2022-10-06T01:04:28.154Z,1009.74
2022-10-06T01:05:28.128Z,1009.77
2022-10-06T01:06:28.119Z,1009.71
2022-10-06T01:07:28.104Z,1009.80
2022-10-06T01:08:28.480Z,1009.85
2022-10-06T01:09:28.095Z,1009.84
2022-10-06T01:10:28.067Z,1009.85
2022-10-06T01:11:28.033Z,1009.82
2022-10-06T01:12:28.044Z,1009.90
2022-10-06T01:13:28.004Z,1009.80
2022-10-06T01:14:28.003Z,1009.84
2022-10-06T01:15:27.986Z,1009.86
2022-10-06T01:16:27.983Z,1009.85
2022-10-06T01:17:27.972Z,1009.83
2022-10-06T01:18:28.216Z,1009.85
2022-10-06T01:19:27.943Z,1009.84
2022-10-06T01:20:27.922Z,1009.94
2022-10-06T01:21:27.946Z,1010.01
2022-10-06T01:22:28.059Z,1009.98
2022-10-06T01:23:27.883Z,1010.01
2022-10-06T01:24:27.900Z,1009.98
2022-10-06T01:25:27.892Z,1010.11
2022-10-06T01:26:27.854Z,1010.04
2022-10-06T01:27:27.834Z,1010.09
2022-10-06T01:28:28.347Z,1010.09
2022-10-06T01:29:27.802Z,1010.11
2022-10-06T01:30:27.793Z,1010.10
2022-10-06T01:31:27.831Z,1010.17
2022-10-06T01:32:27.785Z,1010.16
2022-10-06T01:33:27.762Z,1010.13
2022-10-06T01:34:27.751Z,1010.17
2022-10-06T01:35:27.731Z,1010.11
2022-10-06T01:36:27.742Z,1010.20
2022-10-06T01:37:27.707Z,1010.18
2022-10-06T01:38:28.196Z,1010.15
2022-10-06T01:39:27.671Z,1010.18
2022-10-06T01:40:27.660Z,1010.15
2022-10-06T01:41:27.672Z,1010.24
2022-10-06T01:42:27.640Z,1010.25
2022-10-06T01:43:27.640Z,1010.22
2022-10-06T01:44:27.640Z,1010.29
2022-10-06T01:45:27.610Z,1010.31
2022-10-06T01:46:27.619Z,1010.28
2022-10-06T01:47:27.585Z,1010.32
2022-10-06T01:48:28.169Z,1010.38
2022-10-06T01:49:27.590Z,1010.28
2022-10-06T01:50:27.547Z,1010.36
2022-10-06T01:51:27.543Z,1010.38
2022-10-06T01:52:27.509Z,1010.34
2022-10-06T01:53:27.512Z,1010.32
2022-10-06T01:54:27.525Z,1010.31
2022-10-06T01:55:27.500Z,1010.33
2022-10-06T01:56:27.466Z,1010.33
2022-10-06T01:57:27.446Z,1010.41
2022-10-06T01:58:27.891Z,1010.50
2022-10-06T01:59:27.416Z,1010.48
2022-10-06T02:00:27.420Z,1010.42
2022-10-06T02:01:27.612Z,1010.45
2022-10-06T02:02:27.386Z,1010.51
2022-10-06T02:03:27.395Z,1010.47
2022-10-06T02:04:27.417Z,1010.45
2022-10-06T02:05:27.358Z,1010.52
2022-10-06T02:06:27.345Z,1010.60
2022-10-06T02:07:27.347Z,1010.48
2022-10-06T02:08:27.720Z,1010.51
2022-10-06T02:09:27.285Z,1010.49
2022-10-06T02:10:27.299Z,1010.48
2022-10-06T02:11:27.264Z,1010.49
2022-10-06T02:12:27.276Z,1010.53
2022-10-06T02:13:27.235Z,1010.61
2022-10-06T02:14:27.226Z,1010.58
2022-10-06T02:15:27.216Z,1010.54
2022-10-06T02:16:27.288Z,1010.54
2022-10-06T02:17:27.186Z,1010.74
2022-10-06T02:18:28.222Z,1010.71
2022-10-06T02:19:27.214Z,1010.65
2022-10-06T02:20:27.154Z,1010.63
2022-10-06T02:21:27.185Z,1010.64
2022-10-06T02:22:27.118Z,1010.63
2022-10-06T02:23:27.144Z,1010.69
2022-10-06T02:24:27.143Z,1010.73
2022-10-06T02:25:27.087Z,1010.76
2022-10-06T02:26:27.081Z,1010.78
2022-10-06T02:27:27.061Z,1010.73
2022-10-06T02:28:27.571Z,1010.83
2022-10-06T02:29:27.023Z,1010.81
2022-10-06T02:30:27.011Z,1010.85
2022-10-06T02:31:27.070Z,1010.85
2022-10-06T02:32:26.993Z,1010.87
2022-10-06T02:33:26.992Z,1010.82
2022-10-06T02:34:26.970Z,1010.83
2022-10-06T02:35:26.950Z,1010.89
2022-10-06T02:36:26.951Z,1010.85
2022-10-06T02:37:26.922Z,1010.92
2022-10-06T02:38:27.292Z,1010.84
2022-10-06T02:39:26.899Z,1010.92
2022-10-06T02:40:26.891Z,1010.96
2022-10-06T02:41:26.907Z,1010.96
2022-10-06T02:42:26.873Z,1010.93
2022-10-06T02:43:26.900Z,1011.01
2022-10-06T02:44:26.860Z,1011.01
2022-10-06T02:45:26.847Z,1011.07
2022-10-06T02:46:26.874Z,1011.11
2022-10-06T02:47:26.819Z,1011.07
2022-10-06T02:48:27.150Z,1011.17
2022-10-06T02:49:26.768Z,1011.16
2022-10-06T02:50:26.759Z,1011.18
2022-10-06T02:51:26.778Z,1011.16
2022-10-06T02:52:26.747Z,1011.18
2022-10-06T02:53:26.709Z,1011.20
2022-10-06T02:54:26.709Z,1011.19
2022-10-06T02:55:26.691Z,1011.19
2022-10-06T02:56:26.689Z,1011.25
2022-10-06T02:57:26.669Z,1011.24
2022-10-06T02:58:27.033Z,1011.28
2022-10-06T02:59:26.669Z,1011.34
2022-10-06T03:00:26.627Z,1011.32
2022-10-06T03:01:26.723Z,1011.41
2022-10-06T03:02:26.732Z,1011.32
2022-10-06T03:03:26.589Z,1011.33
2022-10-06T03:04:26.580Z,1011.42
2022-10-06T03:05:26.569Z,1011.40
2022-10-06T03:06:26.599Z,1011.36
2022-10-06T03:07:26.558Z,1011.42
2022-10-06T03:08:26.950Z,1011.44
2022-10-06T03:09:26.506Z,1011.30
2022-10-06T03:10:26.496Z,1011.34
2022-10-06T03:11:26.496Z,1011.41
2022-10-06T03:12:26.497Z,1011.35
2022-10-06T03:13:26.457Z,1011.44
2022-10-06T03:14:27.395Z,1011.50
2022-10-06T03:15:26.441Z,1011.54
2022-10-06T03:16:26.471Z,1011.57
2022-10-06T03:17:26.410Z,1011.66
2022-10-06T03:18:26.813Z,1011.66
2022-10-06T03:19:26.404Z,1011.64
2022-10-06T03:20:26.364Z,1011.61
2022-10-06T03:21:26.373Z,1011.69
2022-10-06T03:22:26.355Z,1011.70
2022-10-06T03:23:26.334Z,1011.77
2022-10-06T03:24:26.315Z,1011.78
2022-10-06T03:25:26.304Z,1011.78
2022-10-06T03:26:26.304Z,1011.76
2022-10-06T03:27:26.292Z,1011.82
2022-10-06T03:28:26.711Z,1011.84
2022-10-06T03:29:26.303Z,1011.91
2022-10-06T03:30:26.235Z,1011.90
2022-10-06T03:31:26.329Z,1011.94
2022-10-06T03:32:26.250Z,1011.97
2022-10-06T03:33:26.194Z,1011.94
2022-10-06T03:34:26.183Z,1011.88
2022-10-06T03:35:26.171Z,1011.87
2022-10-06T03:36:26.162Z,1011.87
2022-10-06T03:37:26.152Z,1011.86
2022-10-06T03:38:26.569Z,1012.05
2022-10-06T03:39:26.111Z,1012.02
2022-10-06T03:40:26.135Z,1012.05
2022-10-06T03:41:26.111Z,1012.11
2022-10-06T03:42:26.081Z,1012.11
2022-10-06T03:43:26.113Z,1012.12
2022-10-06T03:44:26.050Z,1012.14
2022-10-06T03:45:26.045Z,1012.12
2022-10-06T03:46:26.073Z,1012.20
2022-10-06T03:47:26.012Z,1012.17
2022-10-06T03:48:26.242Z,1012.10
2022-10-06T03:49:25.998Z,1012.17
2022-10-06T03:50:25.976Z,1012.14
2022-10-06T03:51:25.983Z,1012.20
2022-10-06T03:52:26.284Z,1012.24
2022-10-06T03:53:25.939Z,1012.26
2022-10-06T03:54:25.943Z,1012.34
2022-10-06T03:55:25.929Z,1012.29
2022-10-06T03:56:25.938Z,1012.34
2022-10-06T03:57:25.878Z,1012.38
2022-10-06T03:58:26.068Z,1012.37
2022-10-06T03:59:25.872Z,1012.42
2022-10-06T04:00:25.838Z,1012.39
2022-10-06T04:01:26.709Z,1012.39
2022-10-06T04:02:25.852Z,1012.38
2022-10-06T04:03:25.813Z,1012.40
2022-10-06T04:04:25.796Z,1012.42
2022-10-06T04:05:25.790Z,1012.43
2022-10-06T04:06:25.822Z,1012.38
2022-10-06T04:07:25.786Z,1012.37
2022-10-06T04:08:26.011Z,1012.51
2022-10-06T04:09:25.742Z,1012.53
2022-10-06T04:10:25.756Z,1012.50
2022-10-06T04:11:25.714Z,1012.54
2022-10-06T04:12:25.699Z,1012.51
2022-10-06T04:13:25.677Z,1012.52
2022-10-06T04:14:25.656Z,1012.55
2022-10-06T04:15:25.646Z,1012.54
2022-10-06T04:16:25.858Z,1012.59
2022-10-06T04:17:25.641Z,1012.61
2022-10-06T04:18:25.688Z,1012.63
2022-10-06T04:19:25.603Z,1012.61
2022-10-06T04:20:25.587Z,1012.65
2022-10-06T04:21:25.600Z,1012.63
2022-10-06T04:22:25.557Z,1012.66
2022-10-06T04:23:25.558Z,1012.71
2022-10-06T04:24:25.535Z,1012.67
2022-10-06T04:25:25.529Z,1012.64
2022-10-06T04:26:25.514Z,1012.67
2022-10-06T04:27:25.493Z,1012.77
2022-10-06T04:28:25.640Z,1012.73
2022-10-06T04:29:25.484Z,1012.78
2022-10-06T04:30:25.456Z,1012.78
2022-10-06T04:31:25.524Z,1012.78
2022-10-06T04:32:25.424Z,1012.80
2022-10-06T04:33:25.414Z,1012.75
2022-10-06T04:34:25.452Z,1012.84
2022-10-06T04:35:25.406Z,1012.85
2022-10-06T04:36:25.413Z,1012.89
2022-10-06T04:37:25.363Z,1012.94
2022-10-06T04:38:25.372Z,1012.89
2022-10-06T04:39:25.375Z,1012.96
2022-10-06T04:40:25.322Z,1012.98
2022-10-06T04:41:25.323Z,1012.94
2022-10-06T04:42:25.301Z,1012.93
2022-10-06T04:43:25.291Z,1012.95
2022-10-06T04:44:25.274Z,1012.93
2022-10-06T04:45:25.282Z,1013.08
2022-10-06T04:46:42.268Z,1013.13
2022-10-06T04:47:26.231Z,1013.09
2022-10-06T04:48:25.223Z,1013.13
2022-10-06T04:49:25.233Z,1013.08
2022-10-06T04:50:25.212Z,1013.13
2022-10-06T04:51:25.222Z,1013.08
2022-10-06T04:52:25.173Z,1013.06
2022-10-06T04:53:25.151Z,1013.09
2022-10-06T04:54:26.436Z,1013.23
2022-10-06T04:55:25.131Z,1013.32
2022-10-06T04:56:25.144Z,1013.32
2022-10-06T04:57:25.142Z,1013.33
2022-10-06T04:58:25.090Z,1013.28
2022-10-06T04:59:25.078Z,1013.26
2022-10-06T05:00:25.098Z,1013.30
2022-10-06T05:01:25.151Z,1013.34
2022-10-06T05:02:25.075Z,1013.42
2022-10-06T05:03:25.023Z,1013.38
2022-10-06T05:04:25.048Z,1013.42
2022-10-06T05:05:25.011Z,1013.41
2022-10-06T05:06:25.087Z,1013.54
2022-10-06T05:07:24.989Z,1013.48
2022-10-06T05:08:24.961Z,1013.42
2022-10-06T05:09:24.949Z,1013.46
2022-10-06T05:10:24.947Z,1013.45
2022-10-06T05:11:25.971Z,1013.50
2022-10-06T05:12:24.908Z,1013.58
2022-10-06T05:13:24.908Z,1013.59
2022-10-06T05:14:24.887Z,1013.58
2022-10-06T05:15:24.875Z,1013.58
2022-10-06T05:16:24.926Z,1013.62
2022-10-06T05:17:24.847Z,1013.60
2022-10-06T05:18:24.826Z,1013.65
2022-10-06T05:19:24.831Z,1013.65
2022-10-06T05:20:24.807Z,1013.64
2022-10-06T05:21:24.809Z,1013.69
2022-10-06T05:22:24.809Z,1013.61
2022-10-06T05:23:24.765Z,1013.59
2022-10-06T05:24:24.746Z,1013.68
2022-10-06T05:25:24.736Z,1013.73
2022-10-06T05:26:24.762Z,1013.76
2022-10-06T05:27:24.717Z,1013.80
2022-10-06T05:28:24.763Z,1013.87
2022-10-06T05:29:25.435Z,1013.90
2022-10-06T05:30:24.676Z,1013.88
2022-10-06T05:31:24.767Z,1013.84
2022-10-06T05:32:24.655Z,1013.85
2022-10-06T05:33:24.645Z,1013.88
2022-10-06T05:34:24.633Z,1013.92
2022-10-06T05:35:24.609Z,1013.90
2022-10-06T05:36:24.605Z,1013.93
2022-10-06T05:37:24.608Z,1013.92
2022-10-06T05:38:24.584Z,1013.89
2022-10-06T05:39:24.556Z,1013.93
2022-10-06T05:40:24.547Z,1013.94
2022-10-06T05:41:24.551Z,1013.96
2022-10-06T05:42:29.413Z,1013.96
2022-10-06T05:43:25.551Z,1014.03
2022-10-06T05:44:24.495Z,1013.98
2022-10-06T05:45:24.492Z,1014.03
2022-10-06T05:46:24.519Z,1014.06
2022-10-06T05:47:24.453Z,1014.06
2022-10-06T05:48:24.432Z,1014.06
2022-10-06T05:49:24.434Z,1014.10
2022-10-06T05:50:24.414Z,1014.11
2022-10-06T05:51:29.384Z,1014.12
2022-10-06T05:52:25.382Z,1014.08
2022-10-06T05:53:24.389Z,1014.17
2022-10-06T05:54:24.361Z,1014.15
2022-10-06T05:55:24.372Z,1014.19
2022-10-06T05:56:24.399Z,1014.21
2022-10-06T05:57:24.329Z,1014.23
2022-10-06T05:58:24.311Z,1014.24
2022-10-06T05:59:24.343Z,1014.25
2022-10-06T06:00:24.309Z,1014.29
2022-10-06T06:01:24.318Z,1014.31
2022-10-06T06:02:24.320Z,1014.40
2022-10-06T06:03:24.288Z,1014.37
2022-10-06T06:04:24.252Z,1014.47
2022-10-06T06:05:24.230Z,1014.45
2022-10-06T06:06:24.226Z,1014.44
2022-10-06T06:07:24.198Z,1014.48
2022-10-06T06:08:24.188Z,1014.44
2022-10-06T06:09:24.178Z,1014.50
2022-10-06T06:10:24.149Z,1014.53
2022-10-06T06:11:24.153Z,1014.52
2022-10-06T06:12:24.130Z,1014.53
2022-10-06T06:13:24.131Z,1014.55
2022-10-06T06:14:24.099Z,1014.55
2022-10-06T06:15:24.087Z,1014.54
2022-10-06T06:16:24.142Z,1014.58
2022-10-06T06:17:24.057Z,1014.65
2022-10-06T06:18:24.075Z,1014.59
2022-10-06T06:19:28.975Z,1014.59
2022-10-06T06:20:25.027Z,1014.55
2022-10-06T06:21:24.038Z,1014.60
2022-10-06T06:22:24.007Z,1014.61
2022-10-06T06:23:23.984Z,1014.61
2022-10-06T06:24:23.997Z,1014.56
2022-10-06T06:25:23.955Z,1014.64
2022-10-06T06:26:23.965Z,1014.65
2022-10-06T06:27:23.927Z,1014.66
2022-10-06T06:28:24.011Z,1014.71
2022-10-06T06:29:23.906Z,1014.65
2022-10-06T06:30:23.915Z,1014.67
2022-10-06T06:31:23.941Z,1014.73
2022-10-06T06:32:23.866Z,1014.71
2022-10-06T06:33:23.854Z,1014.71
2022-10-06T06:34:23.843Z,1014.71
2022-10-06T06:35:23.825Z,1014.77
2022-10-06T06:36:23.837Z,1014.84
2022-10-06T06:37:23.803Z,1014.85
2022-10-06T06:38:23.802Z,1014.79
2022-10-06T06:39:23.782Z,1014.84
2022-10-06T06:40:23.793Z,1014.85
2022-10-06T06:41:23.813Z,1014.87
2022-10-06T06:42:23.742Z,1014.94
2022-10-06T06:43:23.771Z,1014.89
2022-10-06T06:44:23.721Z,1014.91
2022-10-06T06:45:23.712Z,1014.98
2022-10-06T06:46:23.814Z,1015.06
2022-10-06T06:47:25.973Z,1015.09
2022-10-06T06:48:23.671Z,1015.05
2022-10-06T06:49:23.665Z,1015.03
2022-10-06T06:50:23.633Z,1015.11
2022-10-06T06:51:23.648Z,1015.04
2022-10-06T06:52:23.614Z,1015.08
2022-10-06T06:53:23.611Z,1015.12
2022-10-06T06:54:23.580Z,1015.17
2022-10-06T06:55:23.571Z,1015.13
2022-10-06T06:56:23.567Z,1015.16
2022-10-06T06:57:23.548Z,1015.12
2022-10-06T06:58:23.529Z,1015.22
2022-10-06T06:59:23.550Z,1015.20
2022-10-06T07:00:23.509Z,1015.28
2022-10-06T07:01:23.583Z,1015.22
2022-10-06T07:02:23.586Z,1015.25
2022-10-06T07:03:52.047Z,1015.26
2022-10-06T07:04:24.458Z,1015.24
2022-10-06T07:05:23.458Z,1015.27
2022-10-06T07:06:27.123Z,1015.31
2022-10-06T07:07:23.424Z,1015.27
2022-10-06T07:08:23.408Z,1015.31
2022-10-06T07:09:23.395Z,1015.26
2022-10-06T07:10:23.380Z,1015.34
2022-10-06T07:11:23.390Z,1015.30
2022-10-06T07:12:23.348Z,1015.35
2022-10-06T07:13:25.618Z,1015.35
2022-10-06T07:14:23.328Z,1015.45
2022-10-06T07:15:23.307Z,1015.41
2022-10-06T07:16:23.316Z,1015.40
2022-10-06T07:17:23.284Z,1015.43
2022-10-06T07:18:23.277Z,1015.46
2022-10-06T07:19:24.988Z,1015.45
2022-10-06T07:20:23.313Z,1015.51
2022-10-06T07:21:23.256Z,1015.47
2022-10-06T07:22:23.229Z,1015.44
2022-10-06T07:23:23.239Z,1015.52
2022-10-06T07:24:23.194Z,1015.56
2022-10-06T07:25:25.955Z,1015.54
2022-10-06T07:26:23.178Z,1015.52
2022-10-06T07:27:23.160Z,1015.60
2022-10-06T07:28:23.232Z,1015.67
2022-10-06T07:29:23.143Z,1015.64
2022-10-06T07:30:23.181Z,1015.73
2022-10-06T07:31:23.186Z,1015.70
2022-10-06T07:32:23.084Z,1015.70
2022-10-06T07:33:23.824Z,1015.76
2022-10-06T07:34:23.073Z,1015.75
2022-10-06T07:35:23.078Z,1015.86
2022-10-06T07:36:23.084Z,1015.79
2022-10-06T07:37:23.038Z,1015.86
2022-10-06T07:38:23.010Z,1015.92
2022-10-06T07:39:23.001Z,1015.86
2022-10-06T07:40:23.118Z,1015.88
2022-10-06T07:41:23.033Z,1015.87
2022-10-06T07:42:22.961Z,1015.95
2022-10-06T07:43:22.951Z,1015.97
2022-10-06T07:44:22.934Z,1016.01
2022-10-06T07:45:22.952Z,1016.08
2022-10-06T07:46:22.981Z,1016.05
2022-10-06T07:47:22.924Z,1016.00
2022-10-06T07:48:22.890Z,1016.02
2022-10-06T07:49:22.875Z,1016.03
2022-10-06T07:50:22.904Z,1016.11
2022-10-06T07:51:22.860Z,1016.05
2022-10-06T07:52:22.831Z,1016.06
2022-10-06T07:53:22.820Z,1016.10
2022-10-06T07:54:27.189Z,1016.04
2022-10-06T07:55:22.800Z,1016.09
2022-10-06T07:56:22.791Z,1016.16
2022-10-06T07:57:22.764Z,1016.17
2022-10-06T07:58:22.775Z,1016.15
2022-10-06T07:59:23.469Z,1016.14
2022-10-06T08:00:22.858Z,1016.14
2022-10-06T08:01:22.789Z,1016.16
2022-10-06T08:02:22.743Z,1016.19
2022-10-06T08:03:22.751Z,1016.22
2022-10-06T08:04:22.680Z,1016.23
2022-10-06T08:05:22.659Z,1016.30
2022-10-06T08:06:22.658Z,1016.22
2022-10-06T08:07:22.628Z,1016.31
2022-10-06T08:08:22.643Z,1016.27
2022-10-06T08:09:22.628Z,1016.36
2022-10-06T08:10:22.619Z,1016.39
2022-10-06T08:11:22.630Z,1016.35
2022-10-06T08:12:22.578Z,1016.40
2022-10-06T08:13:22.565Z,1016.31
2022-10-06T08:14:22.548Z,1016.35
2022-10-06T08:15:22.543Z,1016.33
2022-10-06T08:16:22.682Z,1016.32
2022-10-06T08:17:22.516Z,1016.41
2022-10-06T08:18:44.581Z,1016.47
2022-10-06T08:19:23.488Z,1016.46
2022-10-06T08:20:22.469Z,1016.48
2022-10-06T08:21:22.480Z,1016.43
2022-10-06T08:22:22.443Z,1016.40
2022-10-06T08:23:22.438Z,1016.50
2022-10-06T08:24:22.416Z,1016.40
2022-10-06T08:25:22.412Z,1016.35
2022-10-06T08:26:22.404Z,1016.36
2022-10-06T08:27:22.385Z,1016.43
2022-10-06T08:28:22.465Z,1016.41
2022-10-06T08:29:22.374Z,1016.49
2022-10-06T08:30:22.338Z,1016.43
2022-10-06T08:31:22.417Z,1016.51
2022-10-06T08:32:22.314Z,1016.44
2022-10-06T08:33:22.312Z,1016.61
2022-10-06T08:34:22.295Z,1016.51
2022-10-06T08:35:22.304Z,1016.56
2022-10-06T08:36:24.918Z,1016.53
2022-10-06T08:37:22.263Z,1016.46
2022-10-06T08:38:22.244Z,1016.54
2022-10-06T08:39:22.232Z,1016.52
2022-10-06T08:40:22.324Z,1016.57
2022-10-06T08:41:22.232Z,1016.57
2022-10-06T08:42:22.236Z,1016.60
2022-10-06T08:43:22.183Z,1016.66
2022-10-06T08:44:22.195Z,1016.67
2022-10-06T08:45:22.175Z,1016.54
2022-10-06T08:46:24.645Z,1016.59
2022-10-06T08:47:22.143Z,1016.68
2022-10-06T08:48:22.134Z,1016.58
2022-10-06T08:49:22.196Z,1016.62
2022-10-06T08:50:22.095Z,1016.56
2022-10-06T08:51:22.102Z,1016.62
2022-10-06T08:52:22.090Z,1016.65
2022-10-06T08:53:22.079Z,1016.56
2022-10-06T08:54:22.060Z,1016.61
2022-10-06T08:55:22.033Z,1016.62
2022-10-06T08:56:22.050Z,1016.68
2022-10-06T08:57:22.001Z,1016.72
2022-10-06T08:58:21.991Z,1016.74
2022-10-06T08:59:21.963Z,1016.66
2022-10-06T09:00:22.373Z,1016.74
2022-10-06T09:01:22.006Z,1016.76
2022-10-06T09:02:21.977Z,1016.76
2022-10-06T09:03:21.909Z,1016.71
2022-10-06T09:04:21.911Z,1016.80
2022-10-06T09:05:21.938Z,1016.77
2022-10-06T09:06:21.959Z,1016.73
2022-10-06T09:07:21.859Z,1016.77
2022-10-06T09:08:21.878Z,1016.80
2022-10-06T09:09:21.849Z,1016.76
2022-10-06T09:10:21.862Z,1016.81
2022-10-06T09:11:21.809Z,1016.82
2022-10-06T09:12:21.885Z,1016.90
2022-10-06T09:13:22.287Z,1016.85
2022-10-06T09:14:21.807Z,1016.85
2022-10-06T09:15:21.758Z,1016.89
2022-10-06T09:16:21.872Z,1016.89
2022-10-06T09:17:21.792Z,1016.89
2022-10-06T09:18:21.718Z,1016.88
2022-10-06T09:19:23.602Z,1016.81
2022-10-06T09:20:21.691Z,1016.86
2022-10-06T09:21:21.718Z,1016.83
2022-10-06T09:22:21.698Z,1016.84
2022-10-06T09:23:21.660Z,1016.91
2022-10-06T09:24:21.669Z,1016.98
2022-10-06T09:25:21.630Z,1017.05
2022-10-06T09:26:21.641Z,1017.05
2022-10-06T09:27:21.627Z,1017.10
2022-10-06T09:28:21.724Z,1017.06
2022-10-06T09:29:21.565Z,1017.04
2022-10-06T09:30:21.587Z,1017.00
2022-10-06T09:31:21.603Z,1017.00
2022-10-06T09:32:21.526Z,1017.09
2022-10-06T09:33:21.516Z,1017.02
2022-10-06T09:34:21.560Z,1017.07
2022-10-06T09:35:21.546Z,1017.01
2022-10-06T09:36:21.488Z,1016.95
2022-10-06T09:37:21.487Z,1016.97
2022-10-06T09:38:21.475Z,1017.00
2022-10-06T09:39:21.437Z,1017.00
2022-10-06T09:40:21.426Z,1017.03
2022-10-06T09:41:21.426Z,1017.05
2022-10-06T09:42:21.404Z,1017.13
2022-10-06T09:43:21.397Z,1017.14
2022-10-06T09:44:21.394Z,1017.13
2022-10-06T09:45:21.419Z,1017.17
2022-10-06T09:46:21.346Z,1017.08
2022-10-06T09:47:24.743Z,1017.14
2022-10-06T09:48:24.721Z,1017.18
2022-10-06T09:49:21.306Z,1017.18
2022-10-06T09:50:21.305Z,1017.16
2022-10-06T09:51:21.285Z,1017.24
2022-10-06T09:52:21.276Z,1017.17
2022-10-06T09:53:21.293Z,1017.23
2022-10-06T09:54:21.243Z,1017.18
2022-10-06T09:55:21.234Z,1017.22
2022-10-06T09:56:21.224Z,1017.23
2022-10-06T09:57:21.222Z,1017.29
2022-10-06T09:58:21.203Z,1017.15
2022-10-06T09:59:21.213Z,1017.16
2022-10-06T10:00:21.172Z,1017.16
2022-10-06T10:01:21.177Z,1017.17
2022-10-06T10:02:21.153Z,1017.18
2022-10-06T10:03:21.257Z,1017.25
2022-10-06T10:04:21.838Z,1017.32
2022-10-06T10:05:21.165Z,1017.16
2022-10-06T10:06:21.191Z,1017.15
2022-10-06T10:07:21.217Z,1017.19
2022-10-06T10:08:21.162Z,1017.12
2022-10-06T10:09:22.026Z,1017.13
2022-10-06T10:10:21.105Z,1017.17
2022-10-06T10:11:21.041Z,1017.17
2022-10-06T10:12:21.011Z,1017.15
2022-10-06T10:13:20.993Z,1017.10
2022-10-06T10:14:21.111Z,1017.12
2022-10-06T10:15:20.975Z,1017.13
2022-10-06T10:16:21.096Z,1017.12
2022-10-06T10:17:20.951Z,1017.17
2022-10-06T10:18:20.931Z,1017.18
2022-10-06T10:19:20.941Z,1017.12
2022-10-06T10:20:20.932Z,1017.17
2022-10-06T10:21:20.912Z,1017.07
2022-10-06T10:22:20.894Z,1017.17
2022-10-06T10:23:20.955Z,1017.22
2022-10-06T10:24:20.879Z,1017.20
2022-10-06T10:25:20.840Z,1017.20
2022-10-06T10:26:20.882Z,1017.29
2022-10-06T10:27:20.849Z,1017.21
2022-10-06T10:28:20.945Z,1017.18
2022-10-06T10:29:20.803Z,1017.21
2022-10-06T10:30:20.791Z,1017.18
2022-10-06T10:31:20.822Z,1017.25
2022-10-06T10:32:20.790Z,1017.18
2022-10-06T10:34:24.196Z,1017.19
2022-10-06T10:35:20.710Z,1017.20
2022-10-06T10:36:20.717Z,1017.21
2022-10-06T10:37:20.687Z,1017.24
2022-10-06T10:38:20.739Z,1017.21
2022-10-06T10:39:20.662Z,1017.16
2022-10-06T10:40:20.660Z,1017.18
2022-10-06T10:41:20.644Z,1017.16
2022-10-06T10:42:20.629Z,1017.21
2022-10-06T10:43:20.609Z,1017.19
2022-10-06T10:44:20.709Z,1017.17
2022-10-06T10:45:20.591Z,1017.20
2022-10-06T10:46:20.614Z,1017.18
2022-10-06T10:47:20.551Z,1017.18
2022-10-06T10:48:20.550Z,1017.14
2022-10-06T10:49:20.548Z,1017.12
2022-10-06T10:50:20.553Z,1017.17
2022-10-06T10:51:20.529Z,1017.14
2022-10-06T10:52:20.509Z,1017.12
2022-10-06T10:53:20.545Z,1017.15
2022-10-06T10:54:20.479Z,1017.17
2022-10-06T10:55:20.449Z,1017.19
2022-10-06T10:56:20.449Z,1017.21
2022-10-06T10:57:20.429Z,1017.22
2022-10-06T10:58:20.417Z,1017.21
2022-10-06T10:59:20.429Z,1017.18
2022-10-06T11:00:20.406Z,1017.25
2022-10-06T11:01:20.486Z,1017.21
2022-10-06T11:02:20.397Z,1017.27
2022-10-06T11:03:20.357Z,1017.26
2022-10-06T11:04:20.432Z,1017.24
2022-10-06T11:05:21.001Z,1017.24
2022-10-06T11:06:20.332Z,1017.26
2022-10-06T11:07:20.298Z,1017.24
2022-10-06T11:08:20.287Z,1017.29
2022-10-06T11:09:20.269Z,1017.26
2022-10-06T11:10:20.299Z,1017.24
2022-10-06T11:11:20.270Z,1017.29
2022-10-06T11:12:20.237Z,1017.29
2022-10-06T11:13:20.250Z,1017.25
2022-10-06T11:14:20.255Z,1017.28
2022-10-06T11:15:20.218Z,1017.26
2022-10-06T11:16:20.213Z,1017.26
2022-10-06T11:17:20.167Z,1017.29
2022-10-06T11:18:21.582Z,1017.31
2022-10-06T11:19:20.149Z,1017.31
2022-10-06T11:20:20.147Z,1017.30
2022-10-06T11:21:20.146Z,1017.30
2022-10-06T11:22:20.100Z,1017.22
2022-10-06T11:23:20.097Z,1017.24
2022-10-06T11:24:20.115Z,1017.25
2022-10-06T11:25:20.103Z,1017.26
2022-10-06T11:26:20.082Z,1017.27
2022-10-06T11:27:20.045Z,1017.33
2022-10-06T11:28:20.078Z,1017.27
2022-10-06T11:29:20.018Z,1017.36
2022-10-06T11:30:20.126Z,1017.35
2022-10-06T11:31:22.787Z,1017.35
2022-10-06T11:32:19.987Z,1017.32
2022-10-06T11:33:19.966Z,1017.31
2022-10-06T11:34:19.955Z,1017.28
2022-10-06T11:35:19.987Z,1017.34
2022-10-06T11:36:19.938Z,1017.36
2022-10-06T11:37:19.946Z,1017.29
2022-10-06T11:38:19.956Z,1017.18
2022-10-06T11:39:19.887Z,1017.27
2022-10-06T11:40:19.880Z,1017.30
2022-10-06T11:41:19.884Z,1017.28
2022-10-06T11:42:19.915Z,1017.29
2022-10-06T11:43:19.872Z,1017.33
2022-10-06T11:44:19.877Z,1017.28
2022-10-06T11:45:19.818Z,1017.40
2022-10-06T11:46:19.908Z,1017.33
2022-10-06T11:47:28.166Z,1017.30
2022-10-06T11:48:20.800Z,1017.36
2022-10-06T11:49:19.757Z,1017.33
2022-10-06T11:50:19.746Z,1017.31
2022-10-06T11:51:20.936Z,1017.31
2022-10-06T11:52:19.717Z,1017.32
2022-10-06T11:53:19.715Z,1017.26
2022-10-06T11:54:19.704Z,1017.26
2022-10-06T11:55:19.685Z,1017.24
2022-10-06T11:56:19.665Z,1017.21
2022-10-06T11:57:19.746Z,1017.26
2022-10-06T11:59:20.658Z,1017.18
2022-10-06T12:00:19.615Z,1017.22
2022-10-06T12:01:19.607Z,1017.22
2022-10-06T12:02:19.636Z,1017.20
2022-10-06T12:03:19.671Z,1017.28
2022-10-06T12:04:24.307Z,1017.24
2022-10-06T12:05:54.877Z,1017.20
2022-10-06T12:06:20.575Z,1017.17
2022-10-06T12:07:19.554Z,1017.20